createdAt,value
2024-05-09T00:00:47.904Z,2.45
2024-05-09T00:03:15.938Z,2.42
2024-05-09T00:05:45.250Z,2.40
2024-05-09T00:08:13.021Z,2.38
2024-05-09T00:10:41.500Z,2.30
2024-05-09T00:13:11.011Z,2.47
2024-05-09T00:15:39.551Z,2.15
2024-05-09T00:18:09.366Z,2.00
2024-05-09T00:20:40.351Z,2.15
2024-05-09T00:23:14.185Z,2.38
2024-05-09T00:25:45.688Z,2.63
2024-05-09T00:28:13.717Z,2.25
2024-05-09T00:30:41.791Z,2.42
2024-05-09T00:33:11.241Z,2.50
2024-05-09T00:35:41.746Z,2.63
2024-05-09T00:38:10.599Z,2.28
2024-05-09T00:40:43.308Z,2.55
2024-05-09T00:43:14.178Z,2.50
2024-05-09T00:45:43.950Z,2.45
2024-05-09T00:48:15.212Z,2.08
2024-05-09T00:50:47.431Z,2.70
2024-05-09T00:53:18.956Z,2.70
2024-05-09T00:55:48.000Z,2.40
2024-05-09T00:58:18.452Z,2.83
2024-05-09T01:00:46.873Z,2.40
2024-05-09T01:03:14.866Z,2.78
2024-05-09T01:05:44.792Z,2.20
2024-05-09T01:13:14.064Z,2.70
2024-05-09T01:15:42.189Z,2.33
2024-05-09T01:18:12.386Z,2.30
2024-05-09T01:20:43.954Z,2.25
2024-05-09T01:23:15.775Z,2.22
2024-05-09T01:25:46.666Z,2.60
2024-05-09T01:30:44.481Z,2.87
2024-05-09T01:33:13.172Z,2.67
2024-05-09T01:35:42.788Z,2.20
2024-05-09T01:38:17.840Z,2.60
2024-05-09T01:40:46.947Z,2.30
2024-05-09T01:43:15.331Z,2.58
2024-05-09T01:45:42.946Z,2.15
2024-05-09T01:48:11.558Z,2.20
2024-05-09T01:50:42.367Z,2.42
2024-05-09T01:53:13.595Z,2.70
2024-05-09T01:55:43.730Z,2.35
2024-05-09T01:58:11.520Z,2.83
2024-05-09T02:00:42.368Z,2.97
2024-05-09T02:03:16.064Z,2.95
2024-05-09T02:05:47.788Z,2.83
2024-05-09T02:08:20.698Z,3.00
2024-05-09T02:10:49.857Z,2.80
2024-05-09T02:13:19.165Z,2.80
2024-05-09T02:15:47.331Z,1.95
2024-05-09T02:18:15.489Z,2.40
2024-05-09T02:20:43.862Z,2.20
2024-05-09T02:23:12.859Z,2.30
2024-05-09T02:25:42.696Z,2.15
2024-05-09T02:30:40.930Z,2.08
2024-05-09T02:33:12.835Z,1.92
2024-05-09T02:35:43.986Z,1.75
2024-05-09T02:38:13.508Z,2.03
2024-05-09T02:40:41.796Z,1.90
2024-05-09T02:43:12.983Z,1.90
2024-05-09T02:45:41.606Z,1.70
2024-05-09T02:48:13.954Z,1.70
2024-05-09T02:50:44.410Z,1.98
2024-05-09T02:53:12.994Z,1.98
2024-05-09T02:55:42.177Z,1.95
2024-05-09T02:58:11.274Z,2.25
2024-05-09T03:00:41.739Z,2.60
2024-05-09T03:03:13.748Z,2.40
2024-05-09T03:05:44.868Z,2.45
2024-05-09T03:08:13.246Z,2.50
2024-05-09T03:10:41.167Z,2.10
2024-05-09T03:13:10.124Z,2.08
2024-05-09T03:15:38.375Z,2.58
2024-05-09T03:18:07.187Z,2.60
2024-05-09T03:20:36.643Z,2.30
2024-05-09T03:23:09.651Z,2.00
2024-05-09T03:25:39.131Z,2.28
2024-05-09T03:28:07.638Z,2.13
2024-05-09T03:30:40.716Z,1.95
2024-05-09T03:33:19.437Z,1.77
2024-05-09T03:35:49.050Z,1.50
2024-05-09T03:38:17.428Z,2.55
2024-05-09T03:40:50.233Z,1.80
2024-05-09T03:43:20.174Z,1.55
2024-05-09T03:45:50.060Z,1.30
2024-05-09T03:48:19.251Z,1.60
2024-05-09T03:50:47.404Z,1.13
2024-05-09T03:53:15.759Z,1.02
2024-05-09T03:55:43.604Z,1.30
2024-05-09T03:58:13.153Z,1.23
2024-05-09T04:03:12.082Z,1.23
2024-05-09T04:05:42.969Z,1.10
2024-05-09T04:08:15.302Z,1.20
2024-05-09T04:10:43.912Z,1.10
2024-05-09T04:13:11.700Z,1.15
2024-05-09T04:15:40.000Z,1.20
2024-05-09T04:18:08.527Z,1.13
2024-05-09T04:20:39.585Z,0.80
2024-05-09T04:23:14.421Z,1.40
2024-05-09T04:25:45.152Z,1.05
2024-05-09T04:28:14.557Z,0.98
2024-05-09T04:30:43.442Z,1.20
2024-05-09T04:33:13.490Z,1.00
2024-05-09T04:35:43.725Z,1.00
2024-05-09T04:38:13.148Z,1.10
2024-05-09T04:40:41.384Z,1.02
2024-05-09T04:43:15.533Z,0.75
2024-05-09T04:45:44.204Z,0.95
2024-05-09T04:48:12.529Z,1.08
2024-05-09T04:50:40.483Z,0.90
2024-05-09T04:53:11.543Z,1.00
2024-05-09T04:55:40.722Z,1.00
2024-05-09T04:58:09.621Z,0.93
2024-05-09T05:00:40.059Z,1.17
2024-05-09T05:03:13.432Z,1.00
2024-05-09T05:05:45.586Z,1.30
2024-05-09T05:08:19.514Z,1.00
2024-05-09T05:10:49.126Z,0.90
2024-05-09T05:13:21.224Z,1.10
2024-05-09T05:15:57.553Z,1.00
2024-05-09T05:18:29.341Z,0.90
2024-05-09T05:20:58.556Z,1.00
2024-05-09T05:23:26.900Z,1.20
2024-05-09T05:25:55.905Z,1.20
2024-05-09T05:28:24.332Z,1.40
2024-05-09T05:30:52.123Z,1.25
2024-05-09T05:33:20.268Z,1.02
2024-05-09T05:35:48.580Z,1.33
2024-05-09T05:38:17.005Z,1.40
2024-05-09T05:40:44.792Z,1.20
2024-05-09T05:43:19.390Z,1.10
2024-05-09T05:45:47.442Z,1.50
2024-05-09T05:48:17.848Z,1.30
2024-05-09T05:50:48.420Z,1.17
2024-05-09T05:53:16.418Z,1.20
2024-05-09T05:55:44.316Z,1.40
2024-05-09T05:58:12.796Z,1.45
2024-05-09T06:00:42.006Z,1.40
2024-05-09T06:03:13.462Z,1.00
2024-05-09T06:05:44.396Z,1.20
2024-05-09T06:08:12.824Z,1.17
2024-05-09T06:10:41.890Z,1.25
2024-05-09T06:13:14.251Z,1.00
2024-05-09T06:15:43.721Z,1.60
2024-05-09T06:18:14.662Z,1.30
2024-05-09T06:23:12.925Z,1.40
2024-05-09T06:25:42.892Z,1.20
2024-05-09T06:28:14.038Z,1.40
2024-05-09T06:30:43.187Z,1.27
2024-05-09T06:35:46.318Z,1.10
2024-05-09T06:38:14.492Z,1.30
2024-05-09T06:40:44.752Z,1.30
2024-05-09T06:43:19.179Z,1.63
2024-05-09T06:45:50.355Z,1.25
2024-05-09T06:48:20.169Z,1.00
2024-05-09T06:50:51.182Z,1.55
2024-05-09T06:53:23.948Z,1.20
2024-05-09T06:55:52.161Z,1.20
2024-05-09T06:58:19.801Z,1.05
2024-05-09T07:00:50.296Z,1.20
2024-05-09T07:03:19.813Z,1.17
2024-05-09T07:08:19.350Z,0.80
2024-05-09T07:10:48.737Z,1.13
2024-05-09T07:13:16.618Z,1.10
2024-05-09T07:15:44.619Z,1.20
2024-05-09T07:18:18.442Z,1.20
2024-05-09T07:20:48.414Z,1.20
2024-05-09T07:23:17.184Z,1.45
2024-05-09T07:25:46.142Z,0.97
2024-05-09T07:28:18.204Z,1.10
2024-05-09T07:30:46.772Z,1.40
2024-05-09T07:33:19.562Z,1.02
2024-05-09T07:35:48.557Z,1.27
2024-05-09T07:38:17.036Z,1.00
2024-05-09T07:40:50.375Z,1.35
2024-05-09T07:43:18.282Z,1.13
2024-05-09T07:45:52.610Z,1.15
2024-05-09T07:52:38.889Z,1.00
2024-05-09T07:53:49.322Z,1.33
2024-05-09T07:56:23.334Z,1.10
2024-05-09T07:58:56.708Z,1.08
2024-05-09T08:01:28.507Z,1.80
2024-05-09T08:03:58.201Z,1.10
2024-05-09T08:06:26.955Z,1.40
2024-05-09T08:08:55.364Z,1.17
2024-05-09T08:11:24.605Z,1.00
2024-05-09T08:13:54.112Z,1.30
2024-05-09T08:16:23.979Z,1.85
2024-05-09T08:18:51.913Z,1.35
2024-05-09T08:21:19.771Z,1.23
2024-05-09T08:23:47.992Z,1.60
2024-05-09T08:26:16.884Z,1.27
2024-05-09T08:28:46.390Z,1.37
2024-05-09T08:31:15.865Z,1.20
2024-05-09T08:33:51.898Z,1.45
2024-05-09T08:36:21.100Z,1.65
2024-05-09T08:38:55.077Z,1.30
2024-05-09T08:41:22.855Z,1.17
2024-05-09T08:43:50.906Z,1.60
2024-05-09T08:46:19.809Z,1.00
2024-05-09T08:48:50.113Z,2.55
2024-05-09T08:51:21.186Z,1.17
2024-05-09T08:53:50.196Z,1.58
2024-05-09T08:56:20.743Z,1.50
2024-05-09T08:58:55.954Z,1.50
2024-05-09T09:01:25.325Z,1.40
2024-05-09T09:03:54.014Z,1.63
2024-05-09T09:06:23.788Z,1.20
2024-05-09T09:08:53.829Z,1.57
2024-05-09T09:11:23.889Z,1.30
2024-05-09T09:13:53.198Z,1.63
2024-05-09T09:16:33.359Z,1.35
2024-05-09T09:19:06.436Z,0.95
2024-05-09T09:21:36.558Z,1.23
2024-05-09T09:24:05.025Z,1.33
2024-05-09T09:26:33.441Z,1.42
2024-05-09T09:29:04.557Z,1.80
2024-05-09T09:31:32.277Z,1.38
2024-05-09T09:34:07.517Z,1.60
2024-05-09T09:36:39.487Z,1.60
2024-05-09T09:39:10.023Z,1.70
2024-05-09T09:46:41.182Z,1.30
2024-05-09T09:49:10.236Z,1.10
2024-05-09T09:51:43.806Z,1.50
2024-05-09T09:54:14.055Z,1.35
2024-05-09T09:56:44.535Z,1.48
2024-05-09T09:59:14.427Z,1.25
2024-05-09T10:01:46.431Z,1.10
2024-05-09T10:04:19.302Z,1.20
2024-05-09T10:06:53.446Z,1.15
2024-05-09T10:09:22.138Z,1.10
2024-05-09T10:12:00.001Z,1.27
2024-05-09T10:14:31.280Z,1.10
2024-05-09T10:17:05.788Z,1.48
2024-05-09T10:19:35.656Z,1.40
2024-05-09T10:22:06.329Z,1.05
2024-05-09T10:24:52.182Z,1.10
2024-05-09T10:27:31.846Z,1.27
2024-05-09T10:30:09.097Z,1.30
2024-05-09T10:32:42.493Z,1.23
2024-05-09T10:35:13.235Z,1.00
2024-05-09T10:42:46.800Z,1.55
2024-05-09T10:45:16.808Z,1.15
2024-05-09T10:47:46.388Z,1.30
2024-05-09T10:50:22.297Z,0.90
2024-05-09T10:52:58.630Z,1.10
2024-05-09T10:55:27.128Z,1.20
2024-05-09T10:57:56.278Z,0.90
2024-05-09T11:00:36.144Z,1.35
2024-05-09T11:03:13.005Z,1.08
2024-05-09T11:05:44.490Z,1.10
2024-05-09T11:08:13.748Z,1.00
2024-05-09T11:10:43.922Z,1.60
2024-05-09T11:13:12.625Z,1.42
2024-05-09T11:15:43.375Z,1.95
2024-05-09T11:18:25.333Z,1.10
2024-05-09T11:20:55.213Z,1.60
2024-05-09T11:23:26.173Z,1.30
2024-05-09T11:25:59.115Z,1.05
2024-05-09T11:28:31.813Z,0.68
2024-05-09T11:31:08.228Z,1.20
2024-05-09T11:33:39.315Z,1.10
2024-05-09T11:36:10.928Z,1.48
2024-05-09T11:38:41.042Z,1.20
2024-05-09T11:41:17.552Z,1.27
2024-05-09T11:43:45.632Z,1.40
2024-05-09T11:46:13.663Z,1.45
2024-05-09T11:48:41.852Z,1.40
2024-05-09T11:51:09.574Z,1.30
2024-05-09T11:53:37.410Z,1.23
2024-05-09T11:56:06.050Z,1.27
2024-05-09T11:58:37.223Z,1.10
2024-05-09T12:01:07.764Z,1.25
2024-05-09T12:03:38.142Z,1.23
2024-05-09T12:06:06.803Z,1.20
2024-05-09T12:08:34.801Z,1.00
2024-05-09T12:11:02.589Z,1.20
2024-05-09T12:13:31.029Z,1.20
2024-05-09T12:15:59.809Z,1.42
2024-05-09T12:18:28.659Z,1.20
2024-05-09T12:20:57.731Z,1.10
2024-05-09T12:23:27.058Z,1.30
2024-05-09T12:25:55.114Z,1.50
2024-05-09T12:28:23.762Z,1.42
2024-05-09T12:30:52.172Z,1.20
2024-05-09T12:33:21.222Z,1.30
2024-05-09T12:35:50.978Z,1.30
2024-05-09T12:38:19.189Z,1.30
2024-05-09T12:40:47.906Z,0.98
2024-05-09T12:43:16.246Z,1.50
2024-05-09T12:45:44.019Z,1.20
2024-05-09T12:48:13.238Z,1.30
2024-05-09T12:50:41.742Z,1.40
2024-05-09T12:53:10.036Z,1.40
2024-05-09T12:55:48.274Z,1.48
2024-05-09T12:58:25.437Z,1.60
2024-05-09T13:00:53.630Z,1.30
2024-05-09T13:03:22.793Z,1.30
2024-05-09T13:05:51.966Z,1.25
2024-05-09T13:08:21.496Z,1.60
2024-05-09T13:10:50.466Z,1.17
2024-05-09T13:13:19.715Z,1.30
2024-05-09T13:15:47.594Z,1.10
2024-05-09T13:18:15.549Z,1.20
2024-05-09T13:20:44.394Z,1.38
2024-05-09T13:23:12.126Z,1.65
2024-05-09T13:25:40.007Z,2.20
2024-05-09T13:28:08.781Z,2.03
2024-05-09T13:30:40.766Z,1.77
2024-05-09T13:33:13.842Z,1.63
2024-05-09T13:35:47.580Z,1.55
2024-05-09T13:38:22.125Z,2.00
2024-05-09T13:40:51.386Z,1.50
2024-05-09T13:43:21.056Z,2.28
2024-05-09T13:45:49.442Z,1.50
2024-05-09T13:48:17.263Z,1.55
2024-05-09T13:50:50.331Z,1.40
2024-05-09T13:53:17.928Z,1.35
2024-05-09T13:55:48.484Z,1.30
2024-05-09T13:58:16.800Z,0.93
2024-05-09T14:00:48.983Z,1.13
2024-05-09T14:03:20.329Z,1.20
2024-05-09T14:05:51.135Z,1.20
2024-05-09T14:08:23.067Z,1.25
2024-05-09T14:10:51.446Z,1.20
2024-05-09T14:13:20.690Z,1.20
2024-05-09T14:15:50.432Z,1.20
2024-05-09T14:18:20.199Z,1.40
2024-05-09T14:20:50.605Z,1.17
2024-05-09T14:23:18.856Z,1.27
2024-05-09T14:25:51.294Z,1.25
2024-05-09T14:28:22.618Z,1.17
2024-05-09T14:30:51.290Z,1.40
2024-05-09T14:33:26.850Z,1.10
2024-05-09T14:36:00.072Z,1.30
2024-05-09T14:38:30.496Z,1.55
2024-05-09T14:40:58.561Z,1.60
2024-05-09T14:43:26.845Z,1.58
2024-05-09T14:45:56.353Z,1.73
2024-05-09T14:48:25.946Z,1.30
2024-05-09T14:55:56.857Z,1.27
2024-05-09T14:58:26.699Z,1.20
2024-05-09T15:00:57.523Z,1.40
2024-05-09T15:03:25.460Z,3.17
2024-05-09T15:05:53.475Z,1.40
2024-05-09T15:08:21.397Z,1.30
2024-05-09T15:10:50.838Z,1.27
2024-05-09T15:13:21.692Z,1.50
2024-05-09T15:15:50.081Z,1.23
2024-05-09T15:18:18.272Z,1.35
2024-05-09T15:20:46.666Z,1.50
2024-05-09T15:23:15.770Z,1.35
2024-05-09T15:25:45.745Z,1.33
2024-05-09T15:28:13.722Z,1.40
2024-05-09T15:30:46.543Z,1.60
2024-05-09T15:33:16.140Z,1.50
2024-05-09T15:35:47.636Z,1.65
2024-05-09T15:38:16.456Z,1.50
2024-05-09T15:40:44.650Z,1.70
2024-05-09T15:43:15.980Z,1.65
2024-05-09T15:45:44.891Z,1.80
2024-05-09T15:48:15.047Z,1.48
2024-05-09T15:50:43.681Z,1.30
2024-05-09T15:53:13.541Z,1.33
2024-05-09T15:58:10.923Z,1.07
2024-05-09T16:00:43.694Z,1.27
2024-05-09T16:03:14.874Z,2.28
2024-05-09T16:05:46.346Z,1.23
2024-05-09T16:08:17.045Z,1.40
2024-05-09T16:10:47.287Z,1.52
2024-05-09T16:13:17.441Z,1.10
2024-05-09T16:15:47.418Z,1.95
2024-05-09T16:18:15.695Z,1.50
2024-05-09T16:20:49.394Z,1.30
2024-05-09T16:23:18.074Z,1.40
2024-05-09T16:25:48.488Z,1.15
2024-05-09T16:28:17.084Z,1.52
2024-05-09T16:30:47.522Z,1.30
2024-05-09T16:33:15.588Z,1.48
2024-05-09T16:35:47.070Z,1.40
2024-05-09T16:38:15.491Z,1.42
2024-05-09T16:40:46.378Z,1.40
2024-05-09T16:43:20.608Z,1.65
2024-05-09T16:48:20.236Z,1.90
2024-05-09T16:50:50.700Z,1.40
2024-05-09T16:53:19.901Z,2.35
2024-05-09T16:55:49.933Z,1.80
2024-05-09T16:58:23.593Z,1.52
2024-05-09T17:00:51.334Z,1.40
2024-05-09T17:03:21.360Z,1.42
2024-05-09T17:05:50.961Z,1.63
2024-05-09T17:08:20.006Z,1.60
2024-05-09T17:10:51.287Z,1.65
2024-05-09T17:13:21.917Z,1.52
2024-05-09T17:15:51.290Z,1.63
2024-05-09T17:18:19.986Z,1.60
2024-05-09T17:20:51.936Z,2.33
2024-05-09T17:23:24.074Z,1.45
2024-05-09T17:25:53.315Z,1.38
2024-05-09T17:28:21.659Z,1.48
2024-05-09T17:30:53.509Z,1.50
2024-05-09T17:33:21.544Z,1.60
2024-05-09T17:35:52.459Z,1.50
2024-05-09T17:38:23.093Z,1.50
2024-05-09T17:40:53.372Z,1.50
2024-05-09T17:43:24.530Z,1.65
2024-05-09T17:45:52.756Z,1.60
2024-05-09T17:48:21.642Z,1.60
2024-05-09T17:50:51.571Z,1.75
2024-05-09T17:55:49.647Z,1.50
2024-05-09T17:58:17.663Z,1.45
2024-05-09T18:00:46.216Z,1.55
2024-05-09T18:03:17.569Z,1.60
2024-05-09T18:05:46.612Z,1.80
2024-05-09T18:08:15.673Z,1.52
2024-05-09T18:10:46.129Z,2.10
2024-05-09T18:13:15.623Z,1.70
2024-05-09T18:15:44.555Z,1.73
2024-05-09T18:18:13.495Z,1.70
2024-05-09T18:20:44.801Z,1.45
2024-05-09T18:23:18.855Z,1.80
2024-05-09T18:25:48.508Z,1.80
2024-05-09T18:28:17.393Z,1.80
2024-05-09T18:30:46.411Z,1.58
2024-05-09T18:33:14.568Z,1.80
2024-05-09T18:35:45.056Z,1.60
2024-05-09T18:38:14.679Z,1.60
2024-05-09T18:40:45.001Z,1.80
2024-05-09T18:43:15.270Z,2.00
2024-05-09T18:45:43.487Z,2.13
2024-05-09T18:48:12.239Z,1.83
2024-05-09T18:50:41.361Z,2.00
2024-05-09T18:53:12.696Z,1.63
2024-05-09T18:55:42.687Z,1.90
2024-05-09T18:58:10.627Z,1.65
2024-05-09T19:00:41.493Z,1.83
2024-05-09T19:03:13.912Z,1.92
2024-05-09T19:05:44.971Z,2.28
2024-05-09T19:08:15.704Z,1.80
2024-05-09T19:10:46.542Z,1.90
2024-05-09T19:13:15.108Z,1.98
2024-05-09T19:15:44.305Z,1.77
2024-05-09T19:18:15.912Z,2.30
2024-05-09T19:20:45.103Z,2.10
2024-05-09T19:23:13.195Z,2.35
2024-05-09T19:25:40.988Z,2.10
2024-05-09T19:28:09.284Z,1.92
2024-05-09T19:30:41.031Z,1.92
2024-05-09T19:33:13.636Z,2.00
2024-05-09T19:35:43.963Z,2.22
2024-05-09T19:40:42.330Z,2.22
2024-05-09T19:43:11.554Z,2.05
2024-05-09T19:45:39.577Z,2.58
2024-05-09T19:48:10.237Z,2.70
2024-05-09T19:50:43.058Z,2.83
2024-05-09T19:53:13.834Z,3.03
2024-05-09T19:55:42.319Z,3.15
2024-05-09T19:58:11.831Z,2.55
2024-05-09T20:03:14.330Z,2.45
2024-05-09T20:05:44.894Z,2.97
2024-05-09T20:08:13.050Z,2.85
2024-05-09T20:10:41.651Z,2.90
2024-05-09T20:13:11.112Z,2.90
2024-05-09T20:15:40.313Z,3.10
2024-05-09T20:18:09.430Z,3.40
2024-05-09T20:20:41.847Z,3.15
2024-05-09T20:23:14.873Z,3.40
2024-05-09T20:25:43.852Z,3.63
2024-05-09T20:28:12.974Z,3.08
2024-05-09T20:30:42.585Z,3.58
2024-05-09T20:33:10.789Z,3.50
2024-05-09T20:35:40.146Z,3.75
2024-05-09T20:38:08.187Z,4.22
2024-05-09T20:40:38.578Z,6.68
2024-05-09T20:43:10.244Z,6.45
2024-05-09T20:45:42.310Z,6.40
2024-05-09T20:48:10.377Z,5.55
2024-05-09T20:50:41.269Z,5.78
2024-05-09T20:53:14.710Z,5.32
2024-05-09T20:55:44.751Z,6.25
2024-05-09T20:58:13.683Z,6.10
2024-05-09T21:00:44.702Z,5.83
2024-05-09T21:03:16.608Z,5.20
2024-05-09T21:05:46.361Z,5.65
2024-05-09T21:08:14.667Z,6.13
2024-05-09T21:10:43.856Z,6.18
2024-05-09T21:13:12.537Z,5.73
2024-05-09T21:15:40.589Z,5.15
2024-05-09T21:18:08.861Z,4.90
2024-05-09T21:20:37.748Z,5.60
2024-05-09T21:23:05.956Z,5.50
2024-05-09T21:25:33.699Z,4.65
2024-05-09T21:28:01.564Z,5.28
2024-05-09T21:30:38.591Z,5.55
2024-05-09T21:33:12.096Z,6.25
2024-05-09T21:35:42.735Z,5.60
2024-05-09T21:38:10.515Z,5.80
2024-05-09T21:40:39.086Z,6.38
2024-05-09T21:43:07.812Z,6.63
2024-05-09T21:45:37.244Z,6.35
2024-05-09T21:48:06.548Z,6.35
2024-05-09T21:50:40.311Z,6.30
2024-05-09T21:53:12.690Z,5.93
2024-05-09T21:55:42.995Z,5.90
2024-05-09T21:58:12.383Z,5.57
2024-05-09T22:00:42.993Z,6.22
2024-05-09T22:03:12.143Z,5.40
2024-05-09T22:05:42.607Z,5.63
2024-05-09T22:08:11.097Z,5.15
2024-05-09T22:10:40.091Z,5.20
2024-05-09T22:13:09.079Z,5.87
2024-05-09T22:15:39.648Z,5.97
2024-05-09T22:18:10.234Z,5.60
2024-05-09T22:20:45.334Z,5.40
2024-05-09T22:23:15.885Z,4.90
2024-05-09T22:25:43.934Z,5.25
2024-05-09T22:28:15.069Z,4.93
2024-05-09T22:30:44.266Z,4.45
2024-05-09T22:33:12.903Z,4.35
2024-05-09T22:35:41.380Z,4.63
2024-05-09T22:38:09.826Z,5.00
2024-05-09T22:40:46.228Z,4.78
2024-05-09T22:43:19.510Z,4.43
2024-05-09T22:45:48.135Z,4.80
2024-05-09T22:48:16.465Z,4.78
2024-05-09T22:50:44.195Z,4.85
2024-05-09T22:53:11.797Z,4.22
2024-05-09T22:55:39.467Z,4.57
2024-05-09T22:58:07.517Z,4.40
2024-05-09T23:00:35.812Z,4.22
2024-05-09T23:03:05.107Z,3.70
2024-05-09T23:05:33.421Z,4.25
2024-05-09T23:08:02.973Z,4.45
2024-05-09T23:10:36.245Z,4.32
2024-05-09T23:13:08.008Z,4.35
2024-05-09T23:15:38.109Z,3.88
2024-05-09T23:20:38.570Z,4.03
2024-05-09T23:23:09.988Z,4.30
2024-05-09T23:25:39.757Z,3.92
2024-05-09T23:28:08.255Z,3.63
2024-05-09T23:30:39.372Z,4.30
2024-05-09T23:33:13.912Z,3.88
2024-05-09T23:35:44.455Z,4.30
2024-05-09T23:38:13.446Z,3.80
2024-05-09T23:40:42.608Z,3.75
2024-05-09T23:43:12.217Z,4.30
2024-05-09T23:45:41.798Z,3.80
2024-05-09T23:48:11.075Z,4.40
2024-05-09T23:50:40.852Z,3.45
2024-05-09T23:55:38.991Z,4.47
2024-05-09T23:58:07.695Z,4.28
